createdAt,value
2018-08-06T00:01:36.412Z,3.30
2018-08-06T00:04:07.114Z,4.10
2018-08-06T00:06:37.874Z,3.40
2018-08-06T00:09:08.751Z,3.90
2018-08-06T00:11:39.662Z,3.30
2018-08-06T00:14:10.356Z,3.73
2018-08-06T00:16:41.096Z,3.17
2018-08-06T00:19:11.798Z,4.97
2018-08-06T00:21:42.456Z,4.13
2018-08-06T00:24:13.193Z,4.33
2018-08-06T00:26:43.899Z,3.63
2018-08-06T00:29:14.632Z,3.80
2018-08-06T00:31:45.306Z,3.77
2018-08-06T00:34:16.191Z,4.27
2018-08-06T00:36:48.511Z,3.53
2018-08-06T00:39:19.363Z,4.57
2018-08-06T00:41:50.043Z,3.40
2018-08-06T00:44:20.710Z,3.90
2018-08-06T00:46:51.527Z,3.67
2018-08-06T00:49:22.257Z,4.00
2018-08-06T00:51:52.901Z,3.83
2018-08-06T00:54:23.671Z,4.13
2018-08-06T00:56:54.499Z,4.70
2018-08-06T00:59:25.197Z,3.83
2018-08-06T01:01:55.970Z,4.37
2018-08-06T01:04:26.656Z,3.70
2018-08-06T01:06:57.332Z,4.30
2018-08-06T01:09:34.092Z,4.00
2018-08-06T01:12:04.831Z,4.70
2018-08-06T01:14:35.580Z,3.93
2018-08-06T01:17:06.449Z,4.63
2018-08-06T01:19:37.115Z,3.90
2018-08-06T01:22:07.842Z,4.37
2018-08-06T01:24:38.522Z,5.30
2018-08-06T01:27:09.239Z,4.20
2018-08-06T01:29:40.049Z,4.77
2018-08-06T01:32:10.715Z,3.90
2018-08-06T01:34:41.444Z,4.20
2018-08-06T01:37:12.893Z,4.43
2018-08-06T01:39:43.776Z,3.70
2018-08-06T01:42:14.439Z,4.13
2018-08-06T01:44:45.114Z,4.10
2018-08-06T01:47:15.864Z,4.00
2018-08-06T01:49:46.583Z,5.03
2018-08-06T01:52:17.607Z,4.20
2018-08-06T01:54:48.287Z,4.60
2018-08-06T01:57:19.016Z,4.00
2018-08-06T01:59:49.785Z,4.20
2018-08-06T02:02:20.466Z,4.73
2018-08-06T02:04:51.201Z,3.83
2018-08-06T02:07:21.416Z,4.20
2018-08-06T02:09:51.942Z,4.07
2018-08-06T02:12:22.746Z,4.60
2018-08-06T02:14:53.539Z,4.33
2018-08-06T02:17:24.189Z,4.30
2018-08-06T02:19:55.014Z,6.07
2018-08-06T02:22:25.720Z,5.40
2018-08-06T02:24:56.453Z,5.30
2018-08-06T02:27:27.195Z,4.97
2018-08-06T02:29:57.898Z,4.30
2018-08-06T02:32:28.639Z,4.30
2018-08-06T02:34:59.288Z,4.20
2018-08-06T02:37:34.116Z,4.97
2018-08-06T02:40:07.082Z,4.73
2018-08-06T02:42:37.886Z,5.50
2018-08-06T02:45:09.677Z,4.80
2018-08-06T02:47:40.804Z,4.20
2018-08-06T02:50:12.175Z,5.73
2018-08-06T02:52:43.966Z,4.43
2018-08-06T02:55:15.895Z,5.10
2018-08-06T02:57:46.681Z,5.10
2018-08-06T03:00:18.683Z,5.40
2018-08-06T03:02:49.371Z,4.83
2018-08-06T03:05:20.446Z,4.60
2018-08-06T03:07:51.178Z,4.50
2018-08-06T03:10:22.000Z,7.77
2018-08-06T03:12:52.740Z,5.03
2018-08-06T03:15:23.535Z,4.60
2018-08-06T03:21:02.996Z,5.50
2018-08-06T03:23:33.584Z,5.10
2018-08-06T03:26:04.352Z,5.00
2018-08-06T03:28:35.125Z,5.07
2018-08-06T03:31:06.470Z,5.50
2018-08-06T03:33:37.221Z,5.13
2018-08-06T03:36:08.065Z,5.57
2018-08-06T03:38:39.055Z,5.33
2018-08-06T03:41:09.888Z,5.30
2018-08-06T03:43:40.670Z,4.90
2018-08-06T03:46:11.470Z,5.70
2018-08-06T03:48:42.169Z,5.17
2018-08-06T03:51:20.609Z,5.17
2018-08-06T03:53:51.478Z,6.60
2018-08-06T03:56:22.187Z,5.60
2018-08-06T03:58:53.491Z,5.37
2018-08-06T04:01:24.157Z,5.90
2018-08-06T04:03:54.950Z,4.90
2018-08-06T04:06:25.760Z,4.60
2018-08-06T04:08:56.418Z,4.87
2018-08-06T04:11:27.134Z,5.23
2018-08-06T04:13:57.775Z,5.73
2018-08-06T04:16:32.443Z,5.20
2018-08-06T04:19:03.178Z,4.90
2018-08-06T04:21:33.866Z,5.07
2018-08-06T04:24:04.680Z,7.27
2018-08-06T04:26:35.454Z,4.87
2018-08-06T04:29:06.553Z,5.00
2018-08-06T04:31:37.653Z,5.77
2018-08-06T04:34:08.362Z,5.80
2018-08-06T04:36:39.087Z,5.80
2018-08-06T04:39:09.789Z,5.43
2018-08-06T04:41:40.528Z,5.60
2018-08-06T04:44:11.315Z,5.10
2018-08-06T04:46:41.974Z,5.80
2018-08-06T04:49:12.706Z,5.57
2018-08-06T04:51:43.512Z,5.40
2018-08-06T04:54:14.376Z,5.90
2018-08-06T04:56:45.275Z,5.80
2018-08-06T04:59:16.159Z,5.57
2018-08-06T05:01:47.083Z,8.13
2018-08-06T05:04:18.255Z,6.07
2018-08-06T05:06:49.039Z,7.83
2018-08-06T05:09:22.320Z,5.67
2018-08-06T05:11:53.066Z,5.33
2018-08-06T05:14:23.985Z,6.07
2018-08-06T05:16:54.244Z,5.50
2018-08-06T05:19:24.818Z,5.70
2018-08-06T05:21:55.739Z,5.53
2018-08-06T05:24:26.600Z,6.63
2018-08-06T05:26:57.557Z,5.67
2018-08-06T05:29:28.521Z,5.20
2018-08-06T05:31:59.505Z,6.90
2018-08-06T05:34:30.471Z,6.63
2018-08-06T05:37:01.743Z,5.27
2018-08-06T05:39:31.922Z,6.80
2018-08-06T05:42:03.025Z,6.73
2018-08-06T05:44:33.968Z,4.93
2018-08-06T05:47:04.810Z,4.47
2018-08-06T05:49:35.540Z,4.60
2018-08-06T05:52:06.675Z,6.03
2018-08-06T05:54:37.491Z,5.43
2018-08-06T05:57:08.288Z,4.70
2018-08-06T05:59:39.256Z,5.03
2018-08-06T06:02:10.039Z,5.40
2018-08-06T06:04:40.792Z,4.03
2018-08-06T06:07:11.603Z,4.80
2018-08-06T06:09:42.480Z,6.17
2018-08-06T06:12:13.651Z,4.83
2018-08-06T06:14:44.404Z,4.10
2018-08-06T06:17:15.515Z,4.90
2018-08-06T06:19:45.656Z,5.10
2018-08-06T06:22:16.238Z,4.03
2018-08-06T06:24:47.028Z,4.77
2018-08-06T06:27:17.796Z,4.30
2018-08-06T06:29:48.649Z,6.90
2018-08-06T06:32:20.354Z,4.07
2018-08-06T06:34:51.140Z,5.20
2018-08-06T06:37:21.901Z,4.10
2018-08-06T06:39:53.111Z,4.80
2018-08-06T06:42:23.866Z,4.47
2018-08-06T06:44:54.709Z,4.13
2018-08-06T06:47:25.350Z,4.33
2018-08-06T06:49:56.102Z,3.47
2018-08-06T06:52:26.905Z,4.53
2018-08-06T06:54:57.698Z,3.47
2018-08-06T06:57:28.834Z,5.37
2018-08-06T06:59:59.889Z,4.27
2018-08-06T07:02:30.911Z,3.40
2018-08-06T07:05:01.959Z,3.80
2018-08-06T07:07:32.368Z,5.67
2018-08-06T07:10:03.130Z,3.37
2018-08-06T07:12:41.294Z,3.20
2018-08-06T07:15:15.724Z,3.90
2018-08-06T07:17:48.301Z,3.33
2018-08-06T07:20:20.668Z,4.27
2018-08-06T07:22:51.458Z,3.00
2018-08-06T07:25:22.231Z,4.57
2018-08-06T07:27:52.954Z,4.33
2018-08-06T07:30:24.066Z,4.13
2018-08-06T07:32:54.908Z,3.60
2018-08-06T07:35:25.554Z,5.27
2018-08-06T07:37:56.249Z,2.97
2018-08-06T07:40:26.998Z,3.10
2018-08-06T07:42:57.827Z,3.43
2018-08-06T07:45:28.559Z,4.07
2018-08-06T07:47:58.839Z,3.60
2018-08-06T07:50:29.437Z,4.20
2018-08-06T07:53:00.359Z,3.27
2018-08-06T07:55:31.226Z,3.13
2018-08-06T07:58:01.937Z,4.37
2018-08-06T08:00:32.635Z,3.53
2018-08-06T08:03:03.368Z,3.33
2018-08-06T08:05:34.132Z,3.03
2018-08-06T08:08:04.949Z,3.83
2018-08-06T08:10:35.723Z,4.13
2018-08-06T08:13:06.776Z,3.90
2018-08-06T08:15:37.567Z,3.20
2018-08-06T08:18:08.230Z,4.80
2018-08-06T08:20:38.902Z,4.43
2018-08-06T08:23:09.705Z,5.03
2018-08-06T08:25:40.459Z,3.60
2018-08-06T08:28:11.458Z,2.80
2018-08-06T08:30:59.473Z,6.03
2018-08-06T08:33:30.183Z,2.93
2018-08-06T08:36:01.251Z,3.30
2018-08-06T08:38:32.156Z,3.13
2018-08-06T08:41:03.154Z,4.57
2018-08-06T08:43:34.152Z,3.03
2018-08-06T08:46:05.183Z,3.27
2018-08-06T08:48:36.074Z,3.50
2018-08-06T08:51:06.930Z,2.50
2018-08-06T08:53:37.592Z,3.00
2018-08-06T08:56:08.781Z,2.87
2018-08-06T08:58:39.914Z,3.07
2018-08-06T09:01:10.929Z,2.87
2018-08-06T09:03:42.646Z,2.80
2018-08-06T09:06:13.618Z,3.25
2018-08-06T09:08:44.331Z,2.50
2018-08-06T09:11:15.047Z,2.50
2018-08-06T09:13:45.785Z,3.33
2018-08-06T09:16:16.738Z,2.83
2018-08-06T09:18:47.855Z,3.05
2018-08-06T09:24:38.377Z,3.00
2018-08-06T09:27:09.009Z,2.40
2018-08-06T09:29:39.696Z,2.60
2018-08-06T09:32:10.422Z,2.77
2018-08-06T09:34:41.093Z,2.50
2018-08-06T09:37:11.775Z,4.10
2018-08-06T09:39:42.568Z,3.27
2018-08-06T09:42:13.266Z,3.45
2018-08-06T09:44:44.858Z,2.85
2018-08-06T09:47:15.639Z,2.92
2018-08-06T09:49:46.361Z,4.22
2018-08-06T09:52:17.104Z,3.98
2018-08-06T09:54:48.316Z,3.52
2018-08-06T09:57:18.837Z,3.62
2018-08-06T09:59:49.565Z,4.00
2018-08-06T10:02:20.290Z,4.67
2018-08-06T10:04:51.017Z,2.40
2018-08-06T10:07:21.720Z,3.45
2018-08-06T10:09:52.494Z,4.35
2018-08-06T10:12:23.358Z,3.60
2018-08-06T10:14:54.097Z,3.10
2018-08-06T10:17:24.769Z,3.55
2018-08-06T10:19:55.353Z,4.97
2018-08-06T10:22:26.017Z,4.83
2018-08-06T10:24:56.623Z,2.55
2018-08-06T10:27:27.246Z,2.55
2018-08-06T10:29:58.205Z,2.55
2018-08-06T10:32:28.834Z,4.10
2018-08-06T10:34:59.494Z,2.42
2018-08-06T10:37:30.137Z,2.45
2018-08-06T10:40:00.900Z,3.08
2018-08-06T10:42:31.704Z,2.77
2018-08-06T10:45:02.361Z,2.60
2018-08-06T10:47:33.066Z,2.27
2018-08-06T10:50:03.758Z,2.60
2018-08-06T10:52:34.447Z,2.50
2018-08-06T10:55:05.405Z,2.83
2018-08-06T10:57:36.485Z,3.08
2018-08-06T11:00:11.897Z,2.92
2018-08-06T11:02:42.680Z,2.47
2018-08-06T11:05:14.304Z,2.33
2018-08-06T11:07:45.068Z,2.50
2018-08-06T11:10:18.380Z,3.45
2018-08-06T11:12:49.250Z,2.17
2018-08-06T11:15:22.076Z,2.05
2018-08-06T11:17:52.942Z,2.30
2018-08-06T11:20:24.284Z,2.45
2018-08-06T11:22:54.949Z,3.40
2018-08-06T11:25:25.656Z,2.12
2018-08-06T11:27:56.285Z,2.25
2018-08-06T11:30:27.044Z,2.20
2018-08-06T11:32:57.744Z,2.20
2018-08-06T11:35:27.847Z,3.30
2018-08-06T11:37:58.309Z,2.50
2018-08-06T11:40:28.971Z,2.72
2018-08-06T11:42:59.627Z,2.95
2018-08-06T11:45:30.380Z,2.17
2018-08-06T11:48:01.084Z,2.83
2018-08-06T11:50:31.781Z,2.95
2018-08-06T11:53:02.542Z,2.65
2018-08-06T11:55:33.299Z,2.70
2018-08-06T11:58:04.151Z,2.98
2018-08-06T12:00:34.938Z,2.12
2018-08-06T12:03:05.888Z,2.10
2018-08-06T12:05:36.852Z,2.65
2018-08-06T12:08:07.837Z,2.75
2018-08-06T12:10:38.583Z,2.52
2018-08-06T12:13:09.238Z,2.58
2018-08-06T12:15:39.888Z,3.08
2018-08-06T12:18:11.432Z,3.15
2018-08-06T12:20:42.175Z,3.05
2018-08-06T12:23:12.858Z,3.12
2018-08-06T12:25:43.621Z,2.27
2018-08-06T12:28:14.250Z,2.30
2018-08-06T12:30:44.931Z,2.00
2018-08-06T12:33:15.677Z,3.27
2018-08-06T12:35:46.496Z,3.05
2018-08-06T12:38:17.262Z,2.33
2018-08-06T12:40:47.968Z,2.50
2018-08-06T12:43:19.085Z,1.82
2018-08-06T12:45:49.837Z,1.92
2018-08-06T12:48:21.137Z,2.40
2018-08-06T12:50:51.773Z,2.30
2018-08-06T12:53:22.474Z,3.27
2018-08-06T12:55:53.175Z,3.25
2018-08-06T12:58:23.876Z,4.47
2018-08-06T13:00:54.601Z,2.17
2018-08-06T13:03:25.314Z,2.25
2018-08-06T13:05:56.068Z,1.98
2018-08-06T13:08:26.768Z,3.92
2018-08-06T13:10:57.487Z,3.85
2018-08-06T13:13:28.281Z,2.98
2018-08-06T13:15:59.031Z,3.25
2018-08-06T13:18:29.805Z,1.87
2018-08-06T13:21:00.588Z,2.42
2018-08-06T13:23:31.623Z,2.15
2018-08-06T13:26:02.404Z,2.70
2018-08-06T13:28:33.133Z,2.35
2018-08-06T13:31:03.882Z,3.80
2018-08-06T13:33:34.711Z,2.90
2018-08-06T13:36:06.011Z,2.20
2018-08-06T13:38:37.050Z,3.55
2018-08-06T13:41:08.106Z,3.80
2018-08-06T13:43:38.735Z,2.17
2018-08-06T13:46:09.559Z,1.80
2018-08-06T13:48:40.411Z,4.97
2018-08-06T13:51:11.277Z,1.90
2018-08-06T13:53:41.962Z,2.20
2018-08-06T13:56:12.627Z,2.17
2018-08-06T13:58:43.426Z,2.20
2018-08-06T14:01:14.190Z,2.72
2018-08-06T14:03:45.013Z,2.70
2018-08-06T14:06:15.761Z,2.92
2018-08-06T14:08:46.438Z,2.05
2018-08-06T14:11:17.227Z,2.33
2018-08-06T14:13:47.874Z,2.30
2018-08-06T14:16:18.582Z,3.87
2018-08-06T14:18:49.285Z,2.00
2018-08-06T14:21:20.100Z,2.95
2018-08-06T14:23:50.763Z,2.05
2018-08-06T14:26:21.554Z,3.30
2018-08-06T14:28:52.265Z,2.75
2018-08-06T14:31:22.964Z,2.40
2018-08-06T14:33:53.723Z,2.87
2018-08-06T14:36:24.479Z,3.77
2018-08-06T14:38:55.089Z,2.65
2018-08-06T14:41:25.757Z,2.55
2018-08-06T14:43:55.967Z,3.45
2018-08-06T14:46:26.635Z,3.58
2018-08-06T14:48:57.408Z,3.87
2018-08-06T14:51:28.071Z,2.65
2018-08-06T14:53:58.870Z,2.08
2018-08-06T14:56:29.650Z,3.30
2018-08-06T14:59:00.405Z,2.58
2018-08-06T15:01:31.206Z,2.40
2018-08-06T15:04:02.259Z,2.10
2018-08-06T15:06:32.983Z,3.55
2018-08-06T15:09:03.821Z,2.52
2018-08-06T15:11:34.642Z,2.50
2018-08-06T15:14:05.691Z,1.98
2018-08-06T15:16:36.722Z,2.15
2018-08-06T15:19:07.885Z,2.20
2018-08-06T15:21:38.588Z,2.77
2018-08-06T15:24:09.314Z,2.40
2018-08-06T15:26:40.439Z,2.83
2018-08-06T15:29:11.364Z,3.08
2018-08-06T15:31:42.423Z,2.22
2018-08-06T15:34:13.300Z,3.02
2018-08-06T15:36:44.129Z,2.90
2018-08-06T15:39:15.679Z,2.35
2018-08-06T15:41:46.346Z,3.27
2018-08-06T15:44:17.156Z,2.15
2018-08-06T15:46:47.911Z,2.05
2018-08-06T15:49:18.604Z,2.20
2018-08-06T15:51:49.615Z,1.90
2018-08-06T15:54:20.320Z,2.40
2018-08-06T15:56:51.141Z,2.27
2018-08-06T15:59:21.960Z,1.90
2018-08-06T16:01:52.640Z,2.72
2018-08-06T16:04:23.308Z,2.60
2018-08-06T16:06:54.094Z,4.28
2018-08-06T16:09:24.888Z,3.10
2018-08-06T16:11:55.635Z,3.55
2018-08-06T16:14:26.389Z,2.35
2018-08-06T16:16:57.495Z,2.95
2018-08-06T16:19:28.257Z,2.27
2018-08-06T16:22:16.886Z,2.00
2018-08-06T16:24:47.624Z,2.15
2018-08-06T16:27:18.482Z,2.12
2018-08-06T16:29:49.207Z,3.45
2018-08-06T16:38:34.919Z,2.85
2018-08-06T16:41:07.069Z,2.35
2018-08-06T16:43:37.733Z,2.05
2018-08-06T16:46:08.522Z,2.40
2018-08-06T16:48:39.361Z,2.40
2018-08-06T16:51:10.900Z,2.05
2018-08-06T16:53:41.841Z,2.20
2018-08-06T16:56:26.988Z,2.20
2018-08-06T16:58:58.161Z,2.70
2018-08-06T17:01:29.051Z,2.10
2018-08-06T17:07:09.464Z,2.40
2018-08-06T17:09:40.808Z,2.25
2018-08-06T17:12:13.886Z,2.10
2018-08-06T17:14:45.093Z,3.45
2018-08-06T17:17:15.903Z,2.65
2018-08-06T17:19:52.574Z,3.25
2018-08-06T17:22:23.794Z,2.75
2018-08-06T17:24:54.579Z,2.52
2018-08-06T17:27:25.595Z,2.27
2018-08-06T17:29:56.921Z,2.50
2018-08-06T17:32:27.906Z,2.55
2018-08-06T17:34:58.675Z,2.67
2018-08-06T17:37:29.724Z,2.30
2018-08-06T17:40:00.656Z,2.45
2018-08-06T17:42:31.335Z,3.10
2018-08-06T17:45:09.522Z,3.42
2018-08-06T17:47:40.683Z,2.30
2018-08-06T17:50:14.576Z,2.20
2018-08-06T17:52:46.578Z,2.58
2018-08-06T17:55:18.664Z,5.83
2018-08-06T17:57:49.601Z,2.95
2018-08-06T18:00:21.044Z,3.22
2018-08-06T18:02:52.229Z,3.05
2018-08-06T18:05:22.995Z,3.27
2018-08-06T18:07:53.164Z,2.40
2018-08-06T18:10:23.835Z,2.70
2018-08-06T18:12:54.749Z,2.45
2018-08-06T18:15:25.985Z,3.25
2018-08-06T18:17:56.933Z,3.58
2018-08-06T18:20:27.902Z,2.12
2018-08-06T18:22:58.684Z,2.30
2018-08-06T18:25:29.496Z,2.30
2018-08-06T18:28:00.234Z,3.90
2018-08-06T18:30:30.955Z,2.27
2018-08-06T18:33:01.704Z,2.30
2018-08-06T18:35:32.500Z,4.17
2018-08-06T18:38:03.295Z,4.67
2018-08-06T18:40:33.968Z,3.20
2018-08-06T18:43:04.934Z,4.28
2018-08-06T18:45:35.951Z,2.17
2018-08-06T18:48:07.402Z,2.40
2018-08-06T18:50:38.126Z,3.08
2018-08-06T18:53:09.274Z,4.60
2018-08-06T18:55:58.135Z,4.97
2018-08-06T18:58:29.198Z,2.72
2018-08-06T19:01:00.286Z,3.75
2018-08-06T19:03:31.180Z,2.72
2018-08-06T19:06:02.309Z,3.75
2018-08-06T19:08:33.017Z,4.20
2018-08-06T19:11:03.815Z,3.90
2018-08-06T19:13:39.670Z,2.42
2018-08-06T19:16:10.431Z,4.92
2018-08-06T19:18:46.291Z,3.90
2018-08-06T19:21:17.622Z,5.65
2018-08-06T19:23:48.242Z,4.67
2018-08-06T19:26:19.209Z,6.12
2018-08-06T19:28:49.958Z,3.15
2018-08-06T19:31:26.005Z,4.50
2018-08-06T19:33:57.918Z,5.12
2018-08-06T19:36:32.725Z,7.83
2018-08-06T19:39:04.192Z,3.83
2018-08-06T19:41:35.328Z,4.72
2018-08-06T19:44:06.696Z,4.03
2018-08-06T19:46:37.737Z,3.92
2018-08-06T19:49:13.713Z,4.58
2018-08-06T19:51:44.646Z,3.55
2018-08-06T19:54:15.486Z,5.58
2018-08-06T19:56:46.300Z,3.33
2018-08-06T19:59:17.111Z,4.25
2018-08-06T20:01:48.047Z,5.15
2018-08-06T20:04:19.418Z,4.47
2018-08-06T20:06:50.231Z,4.17
2018-08-06T20:09:20.904Z,3.90
2018-08-06T20:11:51.647Z,4.45
2018-08-06T20:14:22.409Z,4.00
2018-08-06T20:16:53.554Z,5.20
2018-08-06T20:19:24.442Z,6.90
2018-08-06T20:21:55.179Z,4.42
2018-08-06T20:24:25.968Z,5.22
2018-08-06T20:26:56.674Z,4.17
2018-08-06T20:29:27.500Z,5.08
2018-08-06T20:31:58.211Z,2.87
2018-08-06T20:34:28.917Z,4.47
2018-08-06T20:36:59.874Z,3.45
2018-08-06T20:39:31.130Z,3.83
2018-08-06T20:42:01.863Z,4.40
2018-08-06T20:44:32.572Z,4.20
2018-08-06T20:47:03.324Z,4.45
2018-08-06T20:49:34.374Z,3.07
2018-08-06T20:52:05.371Z,3.77
2018-08-06T20:54:36.293Z,5.83
2018-08-06T20:57:07.150Z,5.90
2018-08-06T20:59:37.804Z,4.07
2018-08-06T21:02:08.717Z,5.53
2018-08-06T21:04:39.582Z,5.63
2018-08-06T21:07:09.907Z,6.17
2018-08-06T21:09:40.419Z,3.73
2018-08-06T21:12:11.513Z,4.53
2018-08-06T21:14:42.399Z,4.40
2018-08-06T21:17:13.522Z,3.50
2018-08-06T21:19:44.640Z,3.93
2018-08-06T21:22:15.618Z,3.50
2018-08-06T21:24:47.370Z,4.97
2018-08-06T21:27:18.201Z,3.73
2018-08-06T21:29:49.400Z,4.20
2018-08-06T21:32:34.204Z,5.37
2018-08-06T21:35:05.454Z,4.47
2018-08-06T21:37:36.311Z,3.50
2018-08-06T21:40:07.394Z,3.97
2018-08-06T21:42:38.279Z,5.40
2018-08-06T21:45:09.036Z,4.30
2018-08-06T21:47:39.809Z,3.67
2018-08-06T21:50:11.348Z,3.87
2018-08-06T21:52:42.213Z,4.27
2018-08-06T21:55:20.945Z,4.80
2018-08-06T21:57:51.752Z,6.00
2018-08-06T22:00:34.555Z,3.53
2018-08-06T22:03:13.095Z,3.33
2018-08-06T22:05:44.479Z,3.83
2018-08-06T22:08:15.286Z,3.83
2018-08-06T22:10:46.120Z,6.37
2018-08-06T22:13:16.977Z,3.40
2018-08-06T22:15:48.167Z,3.63
2018-08-06T22:18:19.234Z,3.60
2018-08-06T22:20:50.350Z,3.17
2018-08-06T22:23:21.277Z,3.87
2018-08-06T22:25:52.139Z,3.63
2018-08-06T22:28:22.870Z,3.90
2018-08-06T22:30:53.586Z,3.47
2018-08-06T22:33:24.488Z,3.90
2018-08-06T22:35:55.660Z,4.40
2018-08-06T22:38:26.807Z,2.80
2018-08-06T22:40:57.931Z,3.83
2018-08-06T22:43:28.886Z,3.60
2018-08-06T22:46:00.059Z,3.07
2018-08-06T22:48:31.117Z,4.57
2018-08-06T22:51:02.208Z,2.70
2018-08-06T22:53:33.151Z,4.37
2018-08-06T22:56:07.519Z,3.83
2018-08-06T22:58:38.730Z,3.80
2018-08-06T23:01:11.042Z,3.33
2018-08-06T23:03:42.205Z,3.73
2018-08-06T23:06:13.087Z,3.47
2018-08-06T23:08:44.261Z,5.13
2018-08-06T23:11:15.319Z,4.60
2018-08-06T23:13:46.363Z,3.33
2018-08-06T23:16:17.236Z,3.30
2018-08-06T23:18:48.301Z,3.83
2018-08-06T23:21:19.747Z,3.80
2018-08-06T23:23:50.575Z,5.30
2018-08-06T23:26:21.476Z,3.73
2018-08-06T23:28:52.624Z,4.77
2018-08-06T23:31:23.852Z,4.70
2018-08-06T23:33:55.015Z,3.57
2018-08-06T23:36:25.762Z,4.07
2018-08-06T23:38:56.798Z,3.47
2018-08-06T23:41:27.646Z,4.43
2018-08-06T23:43:58.538Z,6.97
2018-08-06T23:46:29.398Z,3.77
2018-08-06T23:49:00.453Z,3.40
2018-08-06T23:51:31.544Z,4.33
2018-08-06T23:54:02.609Z,4.27
2018-08-06T23:56:33.730Z,3.40
2018-08-06T23:59:05.080Z,3.30
